createdAt,value
2022-09-23T00:01:15.955Z,97401.94
2022-09-23T00:05:13.183Z,97377.66
2022-09-23T00:09:10.251Z,97341.16
2022-09-23T00:13:07.684Z,97347.72
2022-09-23T00:17:05.077Z,97379.50
2022-09-23T00:21:10.093Z,97395.13
2022-09-23T00:25:09.853Z,97388.53
2022-09-23T00:29:06.842Z,97357.09
2022-09-23T00:33:03.830Z,97383.22
2022-09-23T00:37:00.870Z,97358.03
2022-09-23T00:40:58.615Z,97335.25
2022-09-23T00:44:59.550Z,97340.13
2022-09-23T00:49:07.343Z,97365.63
2022-09-23T00:53:10.182Z,97373.16
2022-09-23T00:57:08.151Z,97354.41
2022-09-23T01:01:05.730Z,97359.97
2022-09-23T01:05:07.215Z,97345.41
2022-09-23T01:09:04.669Z,97336.34
2022-09-23T01:13:18.326Z,97332.41
2022-09-23T01:17:55.375Z,97351.59
2022-09-23T01:22:27.880Z,97352.09
2022-09-23T01:26:56.749Z,97330.66
2022-09-23T01:31:20.917Z,97337.13
2022-09-23T01:35:50.163Z,97293.72
2022-09-23T01:40:03.529Z,97337.84
2022-09-23T01:44:13.431Z,97334.97
2022-09-23T01:48:37.245Z,97333.94
2022-09-23T01:52:47.372Z,97336.84
2022-09-23T01:57:23.373Z,97335.03
2022-09-23T02:01:33.170Z,97326.22
2022-09-23T02:06:04.598Z,97315.44
2022-09-23T02:10:28.341Z,97337.16
2022-09-23T02:14:36.246Z,97338.91
2022-09-23T02:19:10.592Z,97299.16
2022-09-23T02:23:21.427Z,97331.16
2022-09-23T02:27:47.526Z,97256.56
2022-09-23T02:32:08.416Z,97316.41
2022-09-23T02:36:26.289Z,97315.97
2022-09-23T02:40:41.999Z,97312.16
2022-09-23T02:44:41.630Z,97299.09
2022-09-23T02:48:46.409Z,97300.50
2022-09-23T02:52:43.817Z,97306.28
2022-09-23T02:56:41.948Z,97333.28
2022-09-23T03:01:26.341Z,97305.09
2022-09-23T03:05:37.725Z,97298.63
2022-09-23T03:09:52.851Z,97230.34
2022-09-23T03:14:30.526Z,97289.97
2022-09-23T03:18:52.341Z,97276.09
2022-09-23T03:22:58.342Z,97303.03
2022-09-23T03:26:56.014Z,97280.50
2022-09-23T03:30:56.047Z,97273.28
2022-09-23T03:34:57.444Z,97288.63
2022-09-23T03:39:04.494Z,97295.34
2022-09-23T03:43:04.601Z,97278.63
2022-09-23T03:47:02.999Z,97284.56
2022-09-23T03:51:20.047Z,97286.69
2022-09-23T03:55:19.397Z,97287.88
2022-09-23T03:59:17.110Z,97283.69
2022-09-23T04:03:14.316Z,97259.94
2022-09-23T04:07:13.354Z,97285.25
2022-09-23T04:11:11.149Z,97270.84
2022-09-23T04:15:08.661Z,97259.94
2022-09-23T04:19:09.661Z,97269.19
2022-09-23T04:23:08.508Z,97259.97
2022-09-23T04:27:06.150Z,97261.53
2022-09-23T04:31:09.641Z,97271.72
2022-09-23T04:35:07.682Z,97274.69
2022-09-23T04:39:05.672Z,97260.88
2022-09-23T04:43:03.328Z,97267.25
2022-09-23T04:47:00.388Z,97242.16
2022-09-23T04:51:05.627Z,97273.94
2022-09-23T04:55:02.715Z,97261.94
2022-09-23T04:59:01.935Z,97249.81
2022-09-23T05:02:59.035Z,97277.03
2022-09-23T05:06:59.436Z,97270.13
2022-09-23T05:11:01.264Z,97277.03
2022-09-23T05:14:58.226Z,97248.78
2022-09-23T05:18:55.382Z,97248.63
2022-09-23T05:22:55.626Z,97238.78
2022-09-23T05:26:53.520Z,97240.97
2022-09-23T05:30:50.482Z,97247.41
2022-09-23T05:34:47.562Z,97264.31
2022-09-23T05:38:45.318Z,97263.72
2022-09-23T05:42:42.385Z,97249.84
2022-09-23T05:46:39.574Z,97263.75
2022-09-23T05:50:36.574Z,97228.78
2022-09-23T05:54:33.504Z,97243.63
2022-09-23T05:58:30.513Z,97249.63
2022-09-23T06:02:27.638Z,97261.28
2022-09-23T06:06:30.778Z,97283.00
2022-09-23T06:10:27.726Z,97254.91
2022-09-23T06:14:24.706Z,97247.03
2022-09-23T06:18:22.650Z,97268.97
2022-09-23T06:22:19.674Z,97270.31
2022-09-23T06:26:17.111Z,97271.44
2022-09-23T06:30:14.150Z,97272.91
2022-09-23T06:34:14.663Z,97287.69
2022-09-23T06:38:11.853Z,97251.97
2022-09-23T06:42:09.174Z,97254.22
2022-09-23T06:46:08.553Z,97260.84
2022-09-23T06:50:07.331Z,97280.22
2022-09-23T06:54:04.781Z,97267.28
2022-09-23T06:58:02.280Z,97274.53
2022-09-23T07:01:59.370Z,97278.16
2022-09-23T07:05:57.659Z,97293.81
2022-09-23T07:09:54.604Z,97274.59
2022-09-23T07:13:51.623Z,97269.00
2022-09-23T07:17:49.525Z,97289.13
2022-09-23T07:21:46.554Z,97276.38
2022-09-23T07:25:44.772Z,97263.19
2022-09-23T07:29:48.647Z,97293.94
2022-09-23T07:33:46.044Z,97257.09
2022-09-23T07:37:43.033Z,97274.09
2022-09-23T07:41:44.859Z,97279.56
2022-09-23T07:45:43.667Z,97247.84
2022-09-23T07:49:41.186Z,97262.16
2022-09-23T07:53:38.717Z,97291.75
2022-09-23T07:57:35.838Z,97252.84
2022-09-23T08:01:40.422Z,97280.00
2022-09-23T08:05:37.454Z,97126.25
2022-09-23T08:09:41.583Z,97271.69
2022-09-23T08:13:38.548Z,97232.56
2022-09-23T08:17:35.512Z,97269.06
2022-09-23T08:21:32.921Z,97238.34
2022-09-23T08:25:32.960Z,97265.09
2022-09-23T08:29:31.324Z,97256.88
2022-09-23T08:33:28.606Z,97224.81
2022-09-23T08:37:25.581Z,97240.25
2022-09-23T08:41:58.467Z,97260.78
2022-09-23T08:46:02.694Z,97243.53
2022-09-23T08:50:20.358Z,97251.41
2022-09-23T08:54:18.414Z,97227.81
2022-09-23T08:59:00.210Z,97241.22
2022-09-23T09:02:57.317Z,97227.09
2022-09-23T09:07:24.910Z,97248.31
2022-09-23T09:11:33.407Z,97237.72
2022-09-23T09:15:30.635Z,97195.66
2022-09-23T09:20:24.349Z,97230.69
2022-09-23T09:24:34.629Z,97234.25
2022-09-23T09:28:51.263Z,97205.28
2022-09-23T09:33:05.342Z,97172.69
2022-09-23T09:37:11.520Z,97192.31
2022-09-23T09:41:17.966Z,97205.47
2022-09-23T09:45:26.642Z,97193.16
2022-09-23T09:49:59.183Z,97192.50
2022-09-23T09:54:24.741Z,97185.31
2022-09-23T09:58:21.878Z,97179.41
2022-09-23T10:02:46.785Z,97179.06
2022-09-23T10:06:43.794Z,97166.13
2022-09-23T10:11:05.717Z,97153.34
2022-09-23T10:15:02.710Z,97148.09
2022-09-23T10:19:03.112Z,97147.44
2022-09-23T10:23:09.923Z,97132.09
2022-09-23T10:27:12.106Z,97101.66
2022-09-23T10:31:15.037Z,97132.59
2022-09-23T10:35:18.180Z,97131.28
2022-09-23T10:39:33.723Z,97127.78
2022-09-23T10:44:36.129Z,97123.75
2022-09-23T10:48:46.223Z,97126.66
2022-09-23T10:53:31.124Z,97118.22
2022-09-23T10:57:45.166Z,97125.59
2022-09-23T11:02:19.611Z,97109.00
2022-09-23T11:06:28.396Z,97095.94
2022-09-23T11:11:04.452Z,97079.63
2022-09-23T11:15:35.983Z,97087.09
2022-09-23T11:20:30.663Z,97088.09
2022-09-23T11:24:58.486Z,97073.94
2022-09-23T11:29:25.390Z,97083.16
2022-09-23T11:33:52.896Z,97074.81
2022-09-23T11:37:58.812Z,97028.31
2022-09-23T11:42:00.288Z,97058.06
2022-09-23T11:46:10.368Z,97044.34
2022-09-23T11:50:28.128Z,97061.00
2022-09-23T11:54:37.522Z,97027.34
2022-09-23T11:58:59.991Z,96994.78
2022-09-23T12:03:23.376Z,97025.31
2022-09-23T12:07:33.268Z,97047.38
2022-09-23T12:12:03.414Z,97035.97
2022-09-23T12:16:56.089Z,97034.22
2022-09-23T12:21:27.478Z,97023.38
2022-09-23T12:25:46.459Z,97024.53
2022-09-23T12:29:43.687Z,97018.75
2022-09-23T12:33:48.618Z,97015.56
2022-09-23T12:37:45.657Z,97006.19
2022-09-23T12:41:47.373Z,96980.28
2022-09-23T12:45:45.628Z,97007.66
2022-09-23T12:49:43.787Z,96994.97
2022-09-23T12:53:53.552Z,96998.97
2022-09-23T12:57:50.569Z,96998.25
2022-09-23T13:01:47.940Z,96990.44
2022-09-23T13:06:16.894Z,96943.22
2022-09-23T13:10:41.956Z,96984.94
2022-09-23T13:14:45.073Z,96981.81
2022-09-23T13:18:54.649Z,96985.84
2022-09-23T13:22:54.541Z,96977.88
2022-09-23T13:26:57.436Z,96972.41
2022-09-23T13:30:54.979Z,96950.47
2022-09-23T13:35:13.545Z,96961.13
2022-09-23T13:39:25.930Z,96908.63
2022-09-23T13:43:31.951Z,96922.47
2022-09-23T13:47:31.312Z,96938.19
2022-09-23T13:51:35.465Z,96918.47
2022-09-23T13:55:39.308Z,96904.66
2022-09-23T13:59:42.409Z,96912.69
2022-09-23T14:03:39.867Z,96928.78
2022-09-23T14:07:37.114Z,96927.78
2022-09-23T14:11:35.632Z,96908.78
2022-09-23T14:15:37.282Z,96913.81
2022-09-23T14:19:37.267Z,96900.31
2022-09-23T14:23:34.369Z,96893.66
2022-09-23T14:27:36.248Z,96917.72
2022-09-23T14:31:33.506Z,96890.63
2022-09-23T14:35:46.710Z,96888.41
2022-09-23T14:39:43.676Z,96897.75
2022-09-23T14:43:49.158Z,96844.84
2022-09-23T14:47:57.008Z,96889.72
2022-09-23T14:52:05.833Z,96884.16
2022-09-23T14:56:11.976Z,96879.66
2022-09-23T15:00:20.221Z,96876.13
2022-09-23T15:04:30.542Z,96874.00
2022-09-23T15:08:28.174Z,96876.91
2022-09-23T15:12:25.687Z,96848.22
2022-09-23T15:16:30.191Z,96872.75
2022-09-23T15:20:27.677Z,96866.72
2022-09-23T15:24:45.649Z,96838.88
2022-09-23T15:28:44.479Z,96860.34
2022-09-23T15:32:42.703Z,96833.97
2022-09-23T15:36:40.088Z,96854.59
2022-09-23T15:40:37.723Z,96831.31
2022-09-23T15:44:36.762Z,96830.78
2022-09-23T15:48:43.746Z,96844.88
2022-09-23T15:52:45.159Z,96831.00
2022-09-23T15:56:42.103Z,96830.19
2022-09-23T16:00:39.296Z,96837.38
2022-09-23T16:04:36.315Z,96825.81
2022-09-23T16:08:33.485Z,96828.50
2022-09-23T16:12:30.548Z,96817.53
2022-09-23T16:16:28.627Z,96819.50
2022-09-23T16:20:29.826Z,96841.91
2022-09-23T16:24:28.288Z,96832.25
2022-09-23T16:28:25.479Z,96786.94
2022-09-23T16:32:24.213Z,96814.28
2022-09-23T16:36:27.361Z,96825.69
2022-09-23T16:40:25.505Z,96839.88
2022-09-23T16:44:22.530Z,96817.66
2022-09-23T16:48:19.832Z,96825.50
2022-09-23T16:52:17.000Z,96798.56
2022-09-23T16:56:14.113Z,96810.41
2022-09-23T17:00:34.955Z,96835.53
2022-09-23T17:04:32.418Z,96821.72
2022-09-23T17:08:30.190Z,96837.78
2022-09-23T17:12:32.676Z,96847.41
2022-09-23T17:16:33.253Z,96850.84
2022-09-23T17:20:30.239Z,96846.06
2022-09-23T17:24:27.251Z,96855.81
2022-09-23T17:28:24.865Z,96798.28
2022-09-23T17:32:21.868Z,96841.50
2022-09-23T17:36:19.575Z,96826.97
2022-09-23T17:40:16.702Z,96844.41
2022-09-23T17:44:15.541Z,96833.59
2022-09-23T17:48:12.745Z,96808.81
2022-09-23T17:52:09.939Z,96846.84
2022-09-23T17:56:22.128Z,96800.00
2022-09-23T18:00:19.149Z,96827.84
2022-09-23T18:04:16.347Z,96853.41
2022-09-23T18:08:13.570Z,96839.16
2022-09-23T18:12:10.557Z,96864.13
2022-09-23T18:16:08.406Z,96831.69
2022-09-23T18:20:06.378Z,96823.22
2022-09-23T18:24:28.504Z,96852.34
2022-09-23T18:28:21.193Z,96861.44
2022-09-23T18:32:18.251Z,96859.31
2022-09-23T18:36:15.731Z,96852.75
2022-09-23T18:40:14.754Z,96866.56
2022-09-23T18:44:11.890Z,96833.69
2022-09-23T18:48:28.175Z,96843.47
2022-09-23T18:52:27.215Z,96851.34
2022-09-23T18:56:27.720Z,96875.28
2022-09-23T19:00:24.696Z,96861.19
2022-09-23T19:04:23.758Z,96844.19
2022-09-23T19:08:20.880Z,96832.09
2022-09-23T19:12:17.900Z,96845.63
2022-09-23T19:16:16.769Z,96852.06
2022-09-23T19:20:13.773Z,96846.75
2022-09-23T19:24:15.955Z,96819.59
2022-09-23T19:28:14.107Z,96845.56
2022-09-23T19:32:15.944Z,96826.31
2022-09-23T19:36:13.252Z,96846.78
2022-09-23T19:40:10.811Z,96811.59
2022-09-23T19:44:10.323Z,96826.63
2022-09-23T19:48:09.752Z,96840.00
2022-09-23T19:52:06.755Z,96849.53
2022-09-23T19:56:06.458Z,96837.28
2022-09-23T20:00:05.474Z,96821.19
2022-09-23T20:04:09.518Z,96828.56
2022-09-23T20:08:06.559Z,96839.59
2022-09-23T20:12:03.633Z,96826.22
2022-09-23T20:16:01.140Z,96815.16
2022-09-23T20:19:58.907Z,96837.09
2022-09-23T20:23:57.405Z,96837.69
2022-09-23T20:27:54.506Z,96842.19
2022-09-23T20:31:53.734Z,96843.53
2022-09-23T20:35:53.445Z,96801.88
2022-09-23T20:39:52.629Z,96832.81
2022-09-23T20:44:00.753Z,96832.06
2022-09-23T20:48:00.358Z,96827.03
2022-09-23T20:51:57.376Z,96789.66
2022-09-23T20:55:58.224Z,96787.50
2022-09-23T20:59:56.042Z,96834.47
2022-09-23T21:03:53.925Z,96828.03
2022-09-23T21:07:51.056Z,96827.47
2022-09-23T21:11:48.005Z,96800.25
2022-09-23T21:15:47.264Z,96816.28
2022-09-23T21:19:44.384Z,96823.28
2022-09-23T21:23:43.531Z,96816.03
2022-09-23T21:27:40.576Z,96810.41
2022-09-23T21:31:38.889Z,96826.19
2022-09-23T21:35:35.956Z,96809.59
2022-09-23T21:39:35.761Z,96825.88
2022-09-23T21:43:35.745Z,96820.50
2022-09-23T21:47:32.896Z,96819.00
2022-09-23T21:51:38.674Z,96813.09
2022-09-23T21:55:35.626Z,96824.88
2022-09-23T21:59:34.000Z,96814.38
2022-09-23T22:03:31.028Z,96820.56
2022-09-23T22:07:28.006Z,96806.75
2022-09-23T22:11:48.931Z,96797.16
2022-09-23T22:15:46.486Z,96774.44
2022-09-23T22:19:47.155Z,96810.25
2022-09-23T22:23:44.286Z,96817.97
2022-09-23T22:28:01.313Z,96815.81
2022-09-23T22:32:18.853Z,96810.47
2022-09-23T22:36:16.396Z,96821.16
2022-09-23T22:40:15.705Z,96788.47
2022-09-23T22:44:12.826Z,96803.97
2022-09-23T22:48:09.801Z,96804.34
2022-09-23T22:52:11.339Z,96806.72
2022-09-23T22:56:08.560Z,96780.63
2022-09-23T23:00:08.316Z,96794.09
2022-09-23T23:04:06.026Z,96778.59
2022-09-23T23:08:03.155Z,96783.41
2022-09-23T23:12:00.278Z,96792.28
2022-09-23T23:16:04.007Z,96780.34
2022-09-23T23:20:01.730Z,96759.59
2022-09-23T23:23:59.278Z,96778.81
2022-09-23T23:27:56.653Z,96790.56
2022-09-23T23:31:53.765Z,96782.63
2022-09-23T23:35:51.733Z,96753.28
2022-09-23T23:39:48.922Z,96790.63
2022-09-23T23:43:48.207Z,96762.28
2022-09-23T23:47:45.451Z,96756.44
2022-09-23T23:51:42.756Z,96765.13
2022-09-23T23:55:39.756Z,96781.47
2022-09-23T23:59:36.898Z,96766.25
